createdAt,value
2017-10-04T00:00:41.526Z,94.98
2017-10-04T00:01:41.501Z,94.74
2017-10-04T00:02:41.479Z,94.93
2017-10-04T00:03:41.458Z,94.93
2017-10-04T00:04:41.437Z,94.7
2017-10-04T00:05:41.415Z,94.7
2017-10-04T00:06:41.398Z,94.98
2017-10-04T00:07:41.368Z,94.74
2017-10-04T00:08:41.345Z,94.7
2017-10-04T00:09:41.378Z,94.74
2017-10-04T00:10:40.993Z,94.93
2017-10-04T00:11:41.284Z,94.7
2017-10-04T00:12:41.255Z,94.89
2017-10-04T00:13:41.237Z,94.84
2017-10-04T00:14:41.210Z,94.74
2017-10-04T00:15:41.189Z,95.32
2017-10-04T00:16:41.166Z,94.98
2017-10-04T00:17:41.153Z,94.74
2017-10-04T00:18:41.120Z,94.93
2017-10-04T00:19:41.101Z,94.56
2017-10-04T00:20:41.077Z,94.46
2017-10-04T00:21:41.051Z,94.46
2017-10-04T00:22:41.033Z,94.89
2017-10-04T00:23:41.006Z,94.65
2017-10-04T00:24:40.987Z,94.74
2017-10-04T00:25:40.961Z,95.32
2017-10-04T00:26:40.941Z,94.65
2017-10-04T00:27:40.923Z,95.22
2017-10-04T00:28:40.895Z,94.74
2017-10-04T00:29:40.885Z,94.93
2017-10-04T00:30:40.851Z,95.41
2017-10-04T00:31:40.832Z,95.12
2017-10-04T00:32:40.800Z,94.89
2017-10-04T00:33:40.810Z,94.93
2017-10-04T00:34:40.758Z,94.89
2017-10-04T00:35:40.749Z,94.74
2017-10-04T00:36:40.714Z,94.74
2017-10-04T00:37:40.686Z,94.65
2017-10-04T00:38:40.672Z,95.03
2017-10-04T00:39:40.640Z,95.03
2017-10-04T00:40:40.624Z,94.84
2017-10-04T00:41:40.606Z,94.46
2017-10-04T00:42:40.578Z,94.74
2017-10-04T00:43:40.557Z,94.74
2017-10-04T00:44:40.535Z,94.93
2017-10-04T00:45:40.507Z,94.93
2017-10-04T00:46:40.487Z,94.74
2017-10-04T00:47:40.464Z,94.74
2017-10-04T00:48:40.443Z,94.98
2017-10-04T00:49:40.419Z,94.65
2017-10-04T00:50:40.392Z,94.74
2017-10-04T00:51:40.372Z,95.03
2017-10-04T00:52:40.354Z,94.74
2017-10-04T00:53:40.333Z,94.74
2017-10-04T00:54:40.312Z,95.03
2017-10-04T00:55:40.287Z,94.93
2017-10-04T00:56:40.265Z,94.93
2017-10-04T00:57:40.236Z,94.98
2017-10-04T00:58:40.214Z,94.93
2017-10-04T00:59:40.195Z,95.08
2017-10-04T01:00:40.174Z,95.03
2017-10-04T01:01:40.149Z,94.74
2017-10-04T01:02:40.122Z,94.74
2017-10-04T01:03:40.099Z,94.93
2017-10-04T01:04:40.081Z,95.03
2017-10-04T01:05:40.062Z,94.93
2017-10-04T01:06:40.033Z,95.03
2017-10-04T01:07:40.010Z,94.93
2017-10-04T01:08:39.994Z,95.03
2017-10-04T01:09:39.966Z,94.65
2017-10-04T01:10:39.940Z,95.03
2017-10-04T01:11:39.929Z,94.65
2017-10-04T01:12:39.899Z,94.93
2017-10-04T01:13:39.878Z,94.74
2017-10-04T01:14:39.853Z,95.03
2017-10-04T01:15:39.832Z,94.93
2017-10-04T01:16:39.809Z,95.03
2017-10-04T01:17:39.781Z,94.74
2017-10-04T01:18:39.764Z,95.03
2017-10-04T01:19:39.739Z,94.93
2017-10-04T01:20:39.714Z,94.74
2017-10-04T01:21:39.692Z,95.22
2017-10-04T01:22:39.363Z,94.93
2017-10-04T01:23:39.649Z,94.93
2017-10-04T01:24:39.628Z,94.93
2017-10-04T01:25:39.606Z,94.7
2017-10-04T01:26:39.583Z,95.03
2017-10-04T01:27:39.558Z,95.03
2017-10-04T01:28:39.540Z,94.56
2017-10-04T01:29:39.516Z,94.74
2017-10-04T01:30:39.490Z,95.03
2017-10-04T01:31:39.465Z,94.79
2017-10-04T01:32:39.445Z,95.08
2017-10-04T01:33:39.418Z,95.03
2017-10-04T01:34:39.406Z,94.51
2017-10-04T01:35:39.375Z,94.7
2017-10-04T01:36:39.352Z,94.84
2017-10-04T01:37:39.379Z,95.08
2017-10-04T01:38:39.308Z,94.84
2017-10-04T01:39:39.284Z,94.84
2017-10-04T01:40:39.261Z,94.51
2017-10-04T01:41:39.239Z,94.7
2017-10-04T01:42:39.266Z,94.79
2017-10-04T01:43:39.200Z,94.41
2017-10-04T01:44:39.179Z,94.51
2017-10-04T01:45:39.150Z,94.46
2017-10-04T01:46:39.130Z,94.51
2017-10-04T01:47:38.796Z,94.65
2017-10-04T01:48:39.085Z,94.79
2017-10-04T01:49:39.058Z,94.46
2017-10-04T01:50:39.040Z,94.79
2017-10-04T01:51:39.014Z,94.51
2017-10-04T01:52:38.989Z,94.89
2017-10-04T01:53:38.973Z,94.98
2017-10-04T01:54:38.945Z,94.51
2017-10-04T01:55:38.922Z,95.03
2017-10-04T01:56:38.898Z,94.6
2017-10-04T01:57:38.880Z,94.93
2017-10-04T01:58:38.852Z,94.74
2017-10-04T01:59:38.833Z,95.03
2017-10-04T02:00:38.811Z,95.03
2017-10-04T02:01:38.784Z,95.03
2017-10-04T02:02:38.768Z,94.89
2017-10-04T02:03:38.744Z,94.98
2017-10-04T02:04:38.725Z,94.98
2017-10-04T02:05:38.742Z,95.03
2017-10-04T02:06:38.680Z,94.89
2017-10-04T02:07:38.653Z,94.7
2017-10-04T02:08:38.629Z,94.79
2017-10-04T02:09:38.604Z,94.98
2017-10-04T02:10:38.588Z,94.7
2017-10-04T02:11:38.564Z,94.98
2017-10-04T02:12:38.539Z,95.03
2017-10-04T02:13:38.521Z,94.98
2017-10-04T02:14:38.493Z,94.89
2017-10-04T02:15:38.473Z,94.98
2017-10-04T02:16:38.446Z,94.89
2017-10-04T02:17:38.425Z,95.03
2017-10-04T02:18:38.400Z,94.7
2017-10-04T02:19:38.382Z,95.03
2017-10-04T02:20:38.365Z,94.84
2017-10-04T02:21:38.336Z,94.56
2017-10-04T02:22:38.310Z,94.56
2017-10-04T02:23:38.287Z,94.93
2017-10-04T02:24:38.268Z,94.65
2017-10-04T02:25:38.241Z,94.56
2017-10-04T02:26:38.217Z,94.84
2017-10-04T02:27:38.198Z,94.74
2017-10-04T02:28:38.227Z,94.74
2017-10-04T02:29:38.154Z,94.93
2017-10-04T02:30:38.133Z,94.74
2017-10-04T02:31:38.118Z,95.32
2017-10-04T02:32:37.805Z,95.22
2017-10-04T02:33:37.753Z,95.32
2017-10-04T02:34:38.038Z,94.93
2017-10-04T02:35:38.015Z,94.46
2017-10-04T02:36:37.991Z,94.93
2017-10-04T02:37:37.974Z,95.17
2017-10-04T02:38:37.952Z,95.22
2017-10-04T02:39:37.618Z,94.84
2017-10-04T02:40:37.899Z,95.41
2017-10-04T02:41:37.880Z,95.22
2017-10-04T02:42:37.862Z,95.51
2017-10-04T02:43:37.835Z,94.74
2017-10-04T02:44:37.502Z,94.93
2017-10-04T02:45:37.788Z,94.65
2017-10-04T02:46:37.767Z,95.37
2017-10-04T02:47:37.436Z,94.89
2017-10-04T02:48:37.723Z,95.22
2017-10-04T02:49:37.711Z,94.98
2017-10-04T02:50:37.677Z,94.7
2017-10-04T02:51:37.653Z,95.17
2017-10-04T02:52:37.634Z,94.98
2017-10-04T02:53:37.609Z,95.37
2017-10-04T02:54:37.588Z,94.98
2017-10-04T02:55:37.562Z,95.37
2017-10-04T02:56:37.535Z,94.89
2017-10-04T02:57:37.511Z,94.7
2017-10-04T02:58:37.493Z,94.74
2017-10-04T02:59:37.469Z,95.27
2017-10-04T03:00:37.450Z,94.89
2017-10-04T03:01:37.423Z,95.17
2017-10-04T03:02:37.406Z,94.7
2017-10-04T03:03:37.385Z,95.41
2017-10-04T03:04:37.360Z,95.27
2017-10-04T03:05:37.340Z,95.08
2017-10-04T03:06:37.315Z,94.84
2017-10-04T03:07:37.290Z,95.51
2017-10-04T03:08:36.970Z,94.98
2017-10-04T03:09:37.297Z,94.6
2017-10-04T03:10:37.222Z,95.41
2017-10-04T03:11:37.203Z,95.32
2017-10-04T03:12:37.176Z,95.17
2017-10-04T03:13:37.157Z,95.12
2017-10-04T03:14:37.131Z,94.6
2017-10-04T03:15:37.107Z,95.32
2017-10-04T03:16:37.086Z,95.41
2017-10-04T03:17:37.067Z,94.93
2017-10-04T03:18:37.046Z,94.7
2017-10-04T03:19:37.016Z,95.03
2017-10-04T03:20:36.993Z,94.93
2017-10-04T03:21:36.973Z,95.32
2017-10-04T03:22:36.947Z,95.32
2017-10-04T03:23:36.929Z,95.32
2017-10-04T03:24:36.904Z,95.41
2017-10-04T03:25:36.883Z,95.22
2017-10-04T03:26:36.860Z,95.51
2017-10-04T03:27:36.836Z,95.65
2017-10-04T03:28:36.812Z,94.6
2017-10-04T03:29:36.793Z,95.51
2017-10-04T03:30:36.771Z,95.37
2017-10-04T03:31:36.753Z,95.46
2017-10-04T03:32:36.719Z,95.37
2017-10-04T03:33:36.403Z,95.17
2017-10-04T03:34:36.677Z,95.46
2017-10-04T03:35:36.656Z,95.08
2017-10-04T03:36:36.630Z,94.6
2017-10-04T03:37:36.609Z,94.6
2017-10-04T03:38:36.613Z,94.6
2017-10-04T03:39:36.565Z,94.6
2017-10-04T03:40:36.542Z,95.08
2017-10-04T03:41:36.546Z,94.51
2017-10-04T03:42:36.498Z,95.27
2017-10-04T03:43:36.472Z,95.37
2017-10-04T03:44:36.449Z,95.27
2017-10-04T03:45:36.479Z,94.51
2017-10-04T03:46:36.408Z,95.46
2017-10-04T03:47:36.380Z,95.37
2017-10-04T03:48:36.362Z,95.37
2017-10-04T03:49:36.340Z,94.79
2017-10-04T03:50:36.313Z,94.98
2017-10-04T03:51:36.293Z,94.98
2017-10-04T03:52:36.267Z,95.37
2017-10-04T03:53:36.241Z,95.37
2017-10-04T03:54:36.220Z,94.98
2017-10-04T03:55:36.200Z,94.89
2017-10-04T03:56:36.180Z,94.89
2017-10-04T03:57:36.155Z,95.27
2017-10-04T03:58:36.131Z,94.98
2017-10-04T03:59:36.109Z,95.37
2017-10-04T04:00:36.084Z,95.37
2017-10-04T04:01:36.066Z,94.98
2017-10-04T04:02:36.043Z,95.37
2017-10-04T04:03:36.019Z,95.08
2017-10-04T04:04:36.010Z,94.79
2017-10-04T04:05:35.969Z,95.27
2017-10-04T04:06:35.957Z,94.51
2017-10-04T04:07:35.929Z,95.37
2017-10-04T04:08:35.598Z,95.37
2017-10-04T04:09:35.880Z,95.37
2017-10-04T04:10:35.859Z,94.7
2017-10-04T04:11:35.842Z,95.37
2017-10-04T04:12:35.810Z,94.51
2017-10-04T04:13:35.791Z,95.37
2017-10-04T04:14:35.765Z,94.7
2017-10-04T04:15:35.751Z,95.27
2017-10-04T04:16:35.722Z,95.17
2017-10-04T04:17:35.732Z,95.27
2017-10-04T04:18:35.673Z,94.98
2017-10-04T04:19:35.654Z,94.7
2017-10-04T04:20:35.631Z,95.37
2017-10-04T04:21:35.610Z,95.27
2017-10-04T04:22:35.584Z,94.98
2017-10-04T04:23:35.570Z,95.17
2017-10-04T04:24:35.543Z,94.79
2017-10-04T04:25:35.513Z,94.79
2017-10-04T04:26:35.494Z,95.37
2017-10-04T04:27:35.468Z,95.56
2017-10-04T04:28:35.449Z,95.46
2017-10-04T04:29:35.426Z,95.46
2017-10-04T04:30:35.407Z,94.98
2017-10-04T04:31:35.381Z,95.17
2017-10-04T04:32:35.378Z,95.27
2017-10-04T04:33:35.331Z,95.56
2017-10-04T04:34:35.309Z,95.17
2017-10-04T04:35:35.289Z,95.27
2017-10-04T04:36:35.265Z,94.98
2017-10-04T04:37:35.242Z,95.17
2017-10-04T04:38:35.223Z,95.17
2017-10-04T04:39:35.204Z,94.7
2017-10-04T04:40:35.175Z,95.37
2017-10-04T04:41:35.151Z,95.08
2017-10-04T04:42:35.132Z,95.27
2017-10-04T04:43:35.107Z,95.27
2017-10-04T04:44:35.085Z,95.37
2017-10-04T04:45:35.138Z,94.98
2017-10-04T04:46:35.037Z,95.08
2017-10-04T04:47:35.018Z,94.98
2017-10-04T04:48:34.993Z,95.03
2017-10-04T04:49:34.972Z,94.98
2017-10-04T04:50:34.947Z,95.08
2017-10-04T04:51:34.923Z,94.98
2017-10-04T04:52:34.906Z,95.08
2017-10-04T04:53:34.881Z,95.03
2017-10-04T04:54:34.865Z,95.12
2017-10-04T04:55:34.838Z,95.12
2017-10-04T04:56:34.815Z,95.27
2017-10-04T04:57:34.792Z,95.12
2017-10-04T04:58:34.764Z,95.12
2017-10-04T04:59:34.740Z,94.74
2017-10-04T05:00:34.726Z,95.08
2017-10-04T05:01:34.700Z,94.84
2017-10-04T05:02:34.375Z,95.08
2017-10-04T05:03:34.659Z,94.89
2017-10-04T05:04:34.630Z,94.79
2017-10-04T05:05:34.603Z,94.79
2017-10-04T05:06:34.679Z,94.74
2017-10-04T05:07:34.561Z,94.93
2017-10-04T05:08:34.544Z,94.84
2017-10-04T05:09:34.518Z,95.56
2017-10-04T05:10:34.184Z,95.56
2017-10-04T05:11:34.474Z,95.12
2017-10-04T05:12:34.448Z,94.98
2017-10-04T05:13:34.418Z,95.41
2017-10-04T05:14:34.397Z,95.22
2017-10-04T05:15:34.069Z,95.12
2017-10-04T05:16:34.355Z,95.03
2017-10-04T05:17:34.330Z,95.12
2017-10-04T05:18:34.003Z,95.51
2017-10-04T05:19:34.286Z,95.22
2017-10-04T05:20:34.260Z,94.65
2017-10-04T05:21:34.247Z,95.12
2017-10-04T05:22:34.218Z,95.03
2017-10-04T05:23:34.192Z,94.84
2017-10-04T05:24:34.170Z,95.32
2017-10-04T05:25:34.148Z,95.12
2017-10-04T05:26:34.126Z,95.22
2017-10-04T05:27:34.111Z,95.32
2017-10-04T05:28:34.078Z,95.32
2017-10-04T05:29:34.055Z,95.12
2017-10-04T05:30:33.725Z,95.32
2017-10-04T05:31:34.040Z,95.12
2017-10-04T05:32:33.993Z,95.03
2017-10-04T05:33:33.964Z,95.12
2017-10-04T05:34:33.639Z,95.32
2017-10-04T05:35:33.924Z,95.32
2017-10-04T05:36:33.894Z,95.03
2017-10-04T05:37:33.881Z,95.12
2017-10-04T05:38:33.850Z,95.12
2017-10-04T05:39:33.825Z,95.03
2017-10-04T05:40:33.800Z,95.32
2017-10-04T05:41:33.782Z,95.12
2017-10-04T05:42:33.759Z,95.22
2017-10-04T05:43:33.748Z,95.32
2017-10-04T05:44:33.716Z,95.22
2017-10-04T05:45:33.689Z,95.32
2017-10-04T05:46:33.664Z,95.03
2017-10-04T05:47:33.643Z,94.93
2017-10-04T05:48:33.627Z,95.22
2017-10-04T05:49:33.598Z,95.12
2017-10-04T05:50:33.575Z,95.32
2017-10-04T05:51:33.554Z,95.12
2017-10-04T05:52:33.526Z,95.12
2017-10-04T05:53:33.506Z,95.03
2017-10-04T05:54:33.480Z,95.32
2017-10-04T05:55:33.459Z,95.51
2017-10-04T05:56:33.438Z,95.03
2017-10-04T05:57:33.412Z,95.32
2017-10-04T05:58:33.390Z,94.65
2017-10-04T05:59:33.370Z,95.03
2017-10-04T06:00:33.345Z,95.03
2017-10-04T06:01:33.320Z,95.12
2017-10-04T06:02:33.297Z,95.12
2017-10-04T06:03:33.283Z,95.22
2017-10-04T06:04:33.254Z,95.32
2017-10-04T06:05:33.227Z,95.12
2017-10-04T06:06:33.207Z,95.03
2017-10-04T06:07:33.184Z,95.12
2017-10-04T06:08:33.163Z,95.32
2017-10-04T06:09:32.832Z,95.32
2017-10-04T06:10:33.112Z,95.03
2017-10-04T06:11:33.089Z,95.22
2017-10-04T06:12:33.072Z,95.41
2017-10-04T06:13:33.043Z,95.41
2017-10-04T06:14:33.027Z,95.08
2017-10-04T06:15:33.001Z,95.41
2017-10-04T06:16:32.972Z,95.12
2017-10-04T06:17:32.951Z,94.93
2017-10-04T06:18:32.931Z,94.89
2017-10-04T06:19:32.915Z,94.98
2017-10-04T06:20:32.885Z,94.79
2017-10-04T06:21:32.865Z,95.27
2017-10-04T06:22:32.846Z,95.08
2017-10-04T06:23:32.819Z,95.27
2017-10-04T06:24:32.803Z,94.79
2017-10-04T06:25:32.469Z,95.37
2017-10-04T06:26:32.749Z,95.27
2017-10-04T06:27:32.779Z,95.56
2017-10-04T06:28:32.711Z,94.65
2017-10-04T06:29:32.684Z,95.32
2017-10-04T06:30:32.659Z,94.56
2017-10-04T06:31:32.639Z,94.46
2017-10-04T06:32:32.616Z,94.98
2017-10-04T06:33:32.596Z,95.08
2017-10-04T06:34:32.570Z,94.7
2017-10-04T06:35:32.545Z,94.51
2017-10-04T06:36:32.528Z,94.79
2017-10-04T06:37:32.505Z,94.51
2017-10-04T06:38:32.479Z,94.6
2017-10-04T06:39:32.518Z,94.7
2017-10-04T06:40:32.441Z,94.65
2017-10-04T06:41:32.413Z,93.98
2017-10-04T06:42:32.393Z,94.36
2017-10-04T06:43:32.369Z,93.65
2017-10-04T06:44:32.350Z,94.27
2017-10-04T06:45:32.332Z,93.79
2017-10-04T06:46:32.304Z,94.17
2017-10-04T06:47:31.978Z,94.36
2017-10-04T06:48:32.271Z,93.5
2017-10-04T06:49:32.294Z,94.17
2017-10-04T06:50:32.219Z,93.79
2017-10-04T06:51:32.189Z,94.07
2017-10-04T06:52:32.174Z,93.7
2017-10-04T06:53:32.151Z,93.5
2017-10-04T06:54:32.128Z,93.5
2017-10-04T06:55:32.102Z,93.6
2017-10-04T06:56:32.084Z,93.16
2017-10-04T06:57:32.060Z,93.07
2017-10-04T06:58:32.045Z,93.36
2017-10-04T06:59:32.070Z,93.07
2017-10-04T07:00:32.000Z,93.4
2017-10-04T07:01:31.981Z,93.21
2017-10-04T07:02:31.649Z,92.69
2017-10-04T07:03:31.933Z,92.49
2017-10-04T07:04:31.919Z,92.59
2017-10-04T07:05:31.893Z,92.45
2017-10-04T07:06:32.025Z,92.45
2017-10-04T07:07:31.848Z,92.16
2017-10-04T07:08:31.837Z,92.74
2017-10-04T07:09:31.804Z,92.07
2017-10-04T07:10:31.784Z,92.5
2017-10-04T07:11:31.762Z,92.5
2017-10-04T07:12:31.742Z,92.21
2017-10-04T07:13:31.722Z,92.79
2017-10-04T07:14:31.699Z,92.59
2017-10-04T07:15:31.680Z,92.55
2017-10-04T07:16:31.653Z,92.59
2017-10-04T07:17:31.640Z,92.74
2017-10-04T07:18:31.617Z,92.83
2017-10-04T07:19:31.593Z,92.74
2017-10-04T07:20:31.570Z,92.83
2017-10-04T07:21:31.548Z,92.83
2017-10-04T07:22:31.532Z,93.21
2017-10-04T07:23:31.506Z,93.12
2017-10-04T07:24:31.492Z,93.31
2017-10-04T07:25:31.460Z,93.02
2017-10-04T07:26:31.446Z,93.31
2017-10-04T07:27:31.429Z,93.12
2017-10-04T07:28:31.396Z,93.5
2017-10-04T07:29:31.383Z,93.41
2017-10-04T07:30:31.352Z,93.12
2017-10-04T07:31:31.339Z,93.31
2017-10-04T07:32:31.307Z,93.02
2017-10-04T07:33:31.291Z,93.5
2017-10-04T07:34:31.267Z,93.12
2017-10-04T07:35:31.239Z,93.41
2017-10-04T07:36:31.220Z,93.02
2017-10-04T07:37:31.203Z,93.31
2017-10-04T07:38:31.182Z,93.02
2017-10-04T07:39:31.157Z,93.21
2017-10-04T07:40:31.145Z,92.93
2017-10-04T07:41:31.112Z,92.93
2017-10-04T07:42:31.088Z,93.12
2017-10-04T07:43:31.092Z,93.02
2017-10-04T07:44:31.052Z,92.93
2017-10-04T07:45:31.022Z,92.64
2017-10-04T07:46:31.005Z,92.83
2017-10-04T07:47:30.980Z,92.64
2017-10-04T07:48:30.962Z,92.83
2017-10-04T07:49:30.947Z,92.93
2017-10-04T07:50:30.917Z,93.41
2017-10-04T07:51:30.588Z,93.41
2017-10-04T07:52:30.874Z,92.83
2017-10-04T07:53:30.852Z,92.83
2017-10-04T07:54:30.826Z,92.74
2017-10-04T07:55:30.809Z,92.93
2017-10-04T07:56:30.788Z,92.74
2017-10-04T07:57:30.767Z,92.83
2017-10-04T07:58:30.744Z,92.55
2017-10-04T07:59:30.718Z,92.55
2017-10-04T08:00:30.700Z,92.74
2017-10-04T08:01:30.677Z,92.74
2017-10-04T08:02:30.664Z,92.74
2017-10-04T08:03:30.635Z,93.02
2017-10-04T08:04:30.614Z,92.83
2017-10-04T08:05:30.599Z,92.69
2017-10-04T08:06:30.563Z,92.79
2017-10-04T08:07:30.546Z,92.79
2017-10-04T08:08:30.528Z,92.5
2017-10-04T08:09:30.501Z,92.69
2017-10-04T08:10:30.483Z,92.59
2017-10-04T08:11:30.463Z,92.4
2017-10-04T08:12:30.436Z,92.69
2017-10-04T08:13:30.418Z,92.59
2017-10-04T08:14:30.394Z,92.59
2017-10-04T08:15:30.385Z,92.5
2017-10-04T08:16:30.351Z,92.5
2017-10-04T08:17:30.326Z,92.11
2017-10-04T08:18:30.306Z,92.59
2017-10-04T08:19:30.350Z,92.59
2017-10-04T08:20:30.266Z,92.69
2017-10-04T08:21:30.239Z,92.02
2017-10-04T08:22:30.221Z,92.11
2017-10-04T08:23:30.199Z,92.79
2017-10-04T08:24:30.177Z,92.11
2017-10-04T08:25:30.155Z,92.11
2017-10-04T08:26:30.141Z,92.11
2017-10-04T08:27:30.112Z,92.02
2017-10-04T08:28:29.785Z,92.02
2017-10-04T08:29:30.120Z,91.93
2017-10-04T08:30:30.061Z,91.83
2017-10-04T08:31:30.025Z,92.3
2017-10-04T08:32:30.007Z,92.02
2017-10-04T08:33:29.985Z,91.83
2017-10-04T08:34:29.999Z,91.93
2017-10-04T08:35:29.942Z,91.83
2017-10-04T08:36:29.923Z,91.64
2017-10-04T08:37:29.899Z,91.25
2017-10-04T08:38:29.881Z,91.25
2017-10-04T08:39:29.857Z,91.88
2017-10-04T08:40:29.833Z,91.39
2017-10-04T08:41:29.813Z,91.49
2017-10-04T08:42:29.788Z,90.87
2017-10-04T08:43:29.468Z,91.16
2017-10-04T08:44:29.748Z,90.72
2017-10-04T08:45:29.727Z,90.72
2017-10-04T08:46:29.708Z,90.58
2017-10-04T08:47:29.679Z,89.43
2017-10-04T08:48:29.665Z,89.57
2017-10-04T08:49:29.641Z,88.99
2017-10-04T08:50:29.637Z,88.13
2017-10-04T08:51:29.295Z,88.99
2017-10-04T08:52:29.579Z,88.8
2017-10-04T08:53:29.561Z,88.8
2017-10-04T08:54:29.538Z,88.8
2017-10-04T08:55:29.224Z,88.42
2017-10-04T08:56:29.191Z,88.85
2017-10-04T08:57:29.482Z,88.42
2017-10-04T08:58:29.467Z,88.09
2017-10-04T08:59:29.443Z,87.9
2017-10-04T09:00:29.420Z,88.37
2017-10-04T09:01:29.410Z,88.09
2017-10-04T09:02:29.378Z,88.66
2017-10-04T09:03:29.357Z,87.9
2017-10-04T09:04:29.339Z,87.9
2017-10-04T09:05:29.317Z,88.37
2017-10-04T09:06:28.991Z,87.99
2017-10-04T09:07:29.275Z,87.8
2017-10-04T09:08:29.258Z,87.99
2017-10-04T09:09:29.234Z,88.18
2017-10-04T09:10:29.268Z,88.09
2017-10-04T09:11:29.195Z,87.99
2017-10-04T09:12:29.175Z,88.09
2017-10-04T09:13:29.152Z,87.7
2017-10-04T09:14:29.141Z,87.99
2017-10-04T09:15:29.114Z,87.99
2017-10-04T09:16:29.095Z,87.99
2017-10-04T09:17:29.073Z,88.18
2017-10-04T09:18:29.052Z,88.33
2017-10-04T09:19:29.034Z,88.13
2017-10-04T09:20:29.020Z,88.33
2017-10-04T09:21:28.991Z,88.33
2017-10-04T09:22:28.982Z,88.19
2017-10-04T09:23:28.694Z,88.81
2017-10-04T09:24:28.672Z,88.57
2017-10-04T09:25:28.908Z,88.95
2017-10-04T09:26:28.890Z,88.95
2017-10-04T09:27:28.869Z,88.67
2017-10-04T09:28:28.845Z,88.86
2017-10-04T09:29:28.823Z,88.81
2017-10-04T09:30:28.804Z,88.62
2017-10-04T09:31:28.793Z,89.48
2017-10-04T09:32:28.765Z,89.1
2017-10-04T09:33:28.434Z,89.2
2017-10-04T09:34:28.721Z,89.77
2017-10-04T09:35:28.736Z,89.29
2017-10-04T09:36:28.721Z,89.48
2017-10-04T09:37:28.655Z,89.67
2017-10-04T09:38:28.634Z,89.67
2017-10-04T09:39:28.612Z,89.77
2017-10-04T09:40:28.609Z,89.58
2017-10-04T09:41:28.574Z,89.87
2017-10-04T09:42:28.551Z,89.72
2017-10-04T09:43:28.528Z,90.06
2017-10-04T09:44:28.510Z,89.62
2017-10-04T09:45:28.494Z,90.01
2017-10-04T09:46:28.464Z,89.81
2017-10-04T09:47:28.495Z,89.72
2017-10-04T09:48:28.424Z,89.24
2017-10-04T09:49:28.405Z,89.91
2017-10-04T09:50:28.384Z,89.34
2017-10-04T09:51:28.365Z,89.53
2017-10-04T09:52:28.337Z,89.48
2017-10-04T09:53:28.315Z,89.58
2017-10-04T09:54:28.298Z,89.38
2017-10-04T09:55:28.277Z,89.38
2017-10-04T09:56:28.253Z,89.58
2017-10-04T09:57:28.241Z,89.38
2017-10-04T09:58:28.208Z,88.52
2017-10-04T09:59:28.188Z,88.9
2017-10-04T10:00:28.189Z,88.71
2017-10-04T10:01:28.154Z,89.19
2017-10-04T10:02:28.131Z,89.48
2017-10-04T10:03:28.125Z,88.9
2017-10-04T10:04:28.093Z,88.9
2017-10-04T10:05:28.067Z,89.43
2017-10-04T10:06:28.046Z,89.43
2017-10-04T10:07:28.022Z,88.86
2017-10-04T10:08:28.001Z,89.38
2017-10-04T10:09:27.982Z,89.24
2017-10-04T10:10:27.961Z,89.34
2017-10-04T10:11:27.950Z,89.15
2017-10-04T10:12:27.920Z,89.43
2017-10-04T10:13:27.899Z,89.05
2017-10-04T10:14:27.882Z,89.15
2017-10-04T10:15:27.857Z,89.72
2017-10-04T10:16:27.839Z,89.53
2017-10-04T10:17:27.811Z,89.43
2017-10-04T10:18:27.793Z,89.53
2017-10-04T10:19:27.773Z,89.43
2017-10-04T10:20:27.443Z,89.53
2017-10-04T10:21:27.732Z,89.34
2017-10-04T10:22:27.708Z,89.53
2017-10-04T10:23:27.688Z,89.43
2017-10-04T10:24:27.664Z,89.53
2017-10-04T10:25:27.646Z,89.43
2017-10-04T10:26:27.316Z,89.53
2017-10-04T10:27:27.602Z,89.43
2017-10-04T10:28:27.276Z,89.72
2017-10-04T10:29:27.563Z,89.72
2017-10-04T10:30:27.537Z,89.53
2017-10-04T10:31:27.523Z,89.53
2017-10-04T10:32:27.500Z,89.05
2017-10-04T10:33:27.475Z,89.19
2017-10-04T10:34:27.461Z,89.05
2017-10-04T10:35:27.434Z,88.95
2017-10-04T10:36:27.411Z,88.86
2017-10-04T10:37:27.393Z,89
2017-10-04T10:38:27.375Z,89
2017-10-04T10:39:27.348Z,89.19
2017-10-04T10:40:27.330Z,89.29
2017-10-04T10:41:27.307Z,89
2017-10-04T10:42:27.290Z,89.09
2017-10-04T10:43:26.960Z,89.29
2017-10-04T10:44:27.243Z,89
2017-10-04T10:45:27.227Z,89.29
2017-10-04T10:46:27.211Z,88.62
2017-10-04T10:47:27.180Z,89.29
2017-10-04T10:48:27.161Z,89.09
2017-10-04T10:49:27.141Z,89.19
2017-10-04T10:50:27.116Z,88.9
2017-10-04T10:51:27.149Z,89.29
2017-10-04T10:52:27.076Z,89.09
2017-10-04T10:53:27.066Z,89.19
2017-10-04T10:54:27.045Z,89.09
2017-10-04T10:55:27.017Z,88.52
2017-10-04T10:56:26.992Z,88.62
2017-10-04T10:57:26.974Z,88.71
2017-10-04T10:58:26.950Z,88.04
2017-10-04T10:59:26.937Z,88.52
2017-10-04T11:00:26.908Z,88.28
2017-10-04T11:01:26.888Z,88.28
2017-10-04T11:02:26.868Z,87.9
2017-10-04T11:03:26.847Z,88.18
2017-10-04T11:04:26.832Z,88.09
2017-10-04T11:05:26.810Z,87.9
2017-10-04T11:06:26.791Z,87.99
2017-10-04T11:07:26.770Z,87.9
2017-10-04T11:08:26.745Z,87.8
2017-10-04T11:09:26.725Z,88.09
2017-10-04T11:10:26.701Z,87.9
2017-10-04T11:11:26.379Z,87.99
2017-10-04T11:12:26.670Z,87.51
2017-10-04T11:13:26.644Z,87.7
2017-10-04T11:14:26.633Z,87.51
2017-10-04T11:15:26.600Z,87.61
2017-10-04T11:16:26.583Z,87.8
2017-10-04T11:17:26.557Z,88.28
2017-10-04T11:18:26.542Z,88.09
2017-10-04T11:19:26.517Z,87.32
2017-10-04T11:20:26.194Z,87.23
2017-10-04T11:21:26.477Z,87.32
2017-10-04T11:22:26.456Z,87.32
2017-10-04T11:23:26.442Z,87.51
2017-10-04T11:24:26.417Z,86.88
2017-10-04T11:25:26.091Z,86.98
2017-10-04T11:26:26.387Z,86.79
2017-10-04T11:27:26.404Z,86.12
2017-10-04T11:28:26.331Z,86.31
2017-10-04T11:29:26.313Z,86.21
2017-10-04T11:30:26.295Z,86.41
2017-10-04T11:31:25.967Z,86.02
2017-10-04T11:32:26.261Z,85.93
2017-10-04T11:33:26.230Z,85.74
2017-10-04T11:34:26.214Z,85.83
2017-10-04T11:35:26.185Z,86.21
2017-10-04T11:36:26.172Z,86.21
2017-10-04T11:37:26.161Z,85.83
2017-10-04T11:38:26.128Z,85.93
2017-10-04T11:39:26.107Z,85.93
2017-10-04T11:40:26.088Z,85.93
2017-10-04T11:41:26.084Z,86.12
2017-10-04T11:42:26.047Z,85.74
2017-10-04T11:43:26.073Z,85.64
2017-10-04T11:44:26.012Z,85.45
2017-10-04T11:45:25.991Z,84.97
2017-10-04T11:46:25.964Z,84.88
2017-10-04T11:47:25.947Z,85.54
2017-10-04T11:48:25.923Z,85.64
2017-10-04T11:49:25.903Z,85.35
2017-10-04T11:50:25.576Z,85.83
2017-10-04T11:51:25.868Z,86.02
2017-10-04T11:52:25.849Z,86.17
2017-10-04T11:53:25.823Z,85.98
2017-10-04T11:54:25.798Z,85.98
2017-10-04T11:55:25.791Z,86.27
2017-10-04T11:56:25.820Z,86.21
2017-10-04T11:57:25.736Z,85.79
2017-10-04T11:58:25.720Z,86.36
2017-10-04T11:59:25.698Z,85.6
2017-10-04T12:00:25.679Z,85.79
2017-10-04T12:01:25.658Z,85.88
2017-10-04T12:02:25.640Z,86.08
2017-10-04T12:03:25.622Z,85.79
2017-10-04T12:04:25.594Z,86.27
2017-10-04T12:05:25.576Z,85.88
2017-10-04T12:06:25.560Z,85.79
2017-10-04T12:07:25.538Z,85.79
2017-10-04T12:08:25.518Z,85.88
2017-10-04T12:09:25.495Z,85.75
2017-10-04T12:10:25.474Z,85.94
2017-10-04T12:11:25.451Z,85.75
2017-10-04T12:12:25.438Z,85.94
2017-10-04T12:13:25.414Z,85.75
2017-10-04T12:14:25.387Z,85.84
2017-10-04T12:15:25.369Z,85.94
2017-10-04T12:16:25.352Z,86.04
2017-10-04T12:17:25.330Z,86.04
2017-10-04T12:18:25.304Z,85.65
2017-10-04T12:19:25.284Z,85.84
2017-10-04T12:20:25.263Z,85.94
2017-10-04T12:21:25.243Z,85.84
2017-10-04T12:22:25.218Z,85.84
2017-10-04T12:23:25.198Z,85.65
2017-10-04T12:24:25.180Z,85.94
2017-10-04T12:25:25.158Z,85.8
2017-10-04T12:26:25.138Z,85.32
2017-10-04T12:27:25.114Z,85.65
2017-10-04T12:28:25.097Z,85.65
2017-10-04T12:29:25.072Z,85.71
2017-10-04T12:30:25.045Z,85.8
2017-10-04T12:31:25.032Z,85.61
2017-10-04T12:32:25.006Z,85.55
2017-10-04T12:33:24.985Z,85.84
2017-10-04T12:34:24.963Z,85.84
2017-10-04T12:35:24.945Z,85.84
2017-10-04T12:36:24.615Z,85.75
2017-10-04T12:37:24.904Z,85.94
2017-10-04T12:38:24.879Z,86.13
2017-10-04T12:39:24.864Z,86.22
2017-10-04T12:40:24.837Z,85.65
2017-10-04T12:41:24.817Z,86.13
2017-10-04T12:42:24.800Z,86.13
2017-10-04T12:43:24.829Z,85.94
2017-10-04T12:44:24.799Z,86.04
2017-10-04T12:45:24.730Z,86.04
2017-10-04T12:46:24.713Z,86.99
2017-10-04T12:47:24.688Z,86.32
2017-10-04T12:48:24.667Z,86.61
2017-10-04T12:49:24.649Z,86.7
2017-10-04T12:50:24.631Z,86.99
2017-10-04T12:51:24.600Z,86.8
2017-10-04T12:52:24.584Z,86.13
2017-10-04T12:53:24.564Z,86.13
2017-10-04T12:54:24.552Z,86.13
2017-10-04T12:55:24.522Z,86.13